createdAt,value
2023-09-05T00:02:25.021Z,17.00
2023-09-05T00:04:59.281Z,15.70
2023-09-05T00:07:31.239Z,15.60
2023-09-05T00:10:04.856Z,16.80
2023-09-05T00:12:42.048Z,16.70
2023-09-05T00:21:20.034Z,16.30
2023-09-05T00:23:54.824Z,16.50
2023-09-05T00:26:25.524Z,16.80
2023-09-05T00:28:57.497Z,16.70
2023-09-05T00:31:29.896Z,16.70
2023-09-05T00:33:59.980Z,16.40
2023-09-05T00:36:41.562Z,16.20
2023-09-05T00:41:58.632Z,16.30
2023-09-05T00:44:33.260Z,16.60
2023-09-05T00:47:09.457Z,16.60
2023-09-05T00:49:43.033Z,16.60
2023-09-05T00:52:19.722Z,16.60
2023-09-05T00:54:51.021Z,16.60
2023-09-05T00:57:21.435Z,16.50
2023-09-05T00:59:55.440Z,16.60
2023-09-05T01:02:25.573Z,16.60
2023-09-05T01:08:06.238Z,16.40
2023-09-05T01:10:48.359Z,16.60
2023-09-05T01:13:26.260Z,15.60
2023-09-05T01:15:58.235Z,16.30
2023-09-05T01:18:29.540Z,16.60
2023-09-05T01:21:16.052Z,16.60
2023-09-05T01:23:55.518Z,16.60
2023-09-05T01:26:28.971Z,16.70
2023-09-05T01:29:04.122Z,16.50
2023-09-05T01:31:35.455Z,16.20
2023-09-05T01:34:04.802Z,16.50
2023-09-05T01:36:38.735Z,16.60
2023-09-05T01:39:08.494Z,16.10
2023-09-05T01:41:44.111Z,16.50
2023-09-05T01:44:14.195Z,16.00
2023-09-05T01:46:44.917Z,16.50
2023-09-05T01:49:13.834Z,16.50
2023-09-05T01:51:43.454Z,16.30
2023-09-05T01:54:13.480Z,16.20
2023-09-05T01:56:43.986Z,16.50
2023-09-05T01:59:15.820Z,16.00
2023-09-05T02:01:44.549Z,16.30
2023-09-05T02:04:14.953Z,16.10
2023-09-05T02:07:10.584Z,16.20
2023-09-05T02:09:39.615Z,16.30
2023-09-05T02:12:13.531Z,16.10
2023-09-05T02:14:48.981Z,16.00
2023-09-05T02:17:22.715Z,16.20
2023-09-05T02:19:55.636Z,15.90
2023-09-05T02:22:27.173Z,15.90
2023-09-05T02:24:56.581Z,16.30
2023-09-05T02:27:27.667Z,16.30
2023-09-05T02:30:00.384Z,16.20
2023-09-05T02:32:31.666Z,16.10
2023-09-05T02:35:01.597Z,16.20
2023-09-05T02:37:31.685Z,15.00
2023-09-05T02:40:03.856Z,16.20
2023-09-05T02:42:37.362Z,16.30
2023-09-05T02:45:09.456Z,16.20
2023-09-05T02:47:40.010Z,16.10
2023-09-05T02:50:15.250Z,16.10
2023-09-05T02:52:48.286Z,16.00
2023-09-05T02:55:19.002Z,16.10
2023-09-05T02:57:58.453Z,16.10
2023-09-05T03:00:30.254Z,16.10
2023-09-05T03:02:59.664Z,15.00
2023-09-05T03:05:29.957Z,16.00
2023-09-05T03:07:59.421Z,16.10
2023-09-05T03:10:30.573Z,16.10
2023-09-05T03:13:01.101Z,15.10
2023-09-05T03:15:30.707Z,16.00
2023-09-05T03:18:01.180Z,16.00
2023-09-05T03:20:32.851Z,15.90
2023-09-05T03:23:03.643Z,15.90
2023-09-05T03:25:32.390Z,15.90
2023-09-05T03:33:41.502Z,15.10
2023-09-05T03:36:12.442Z,15.50
2023-09-05T03:38:43.372Z,15.80
2023-09-05T03:41:13.940Z,14.20
2023-09-05T03:43:43.406Z,15.80
2023-09-05T03:46:13.550Z,15.50
2023-09-05T03:48:47.480Z,15.70
2023-09-05T03:51:17.060Z,15.70
2023-09-05T03:53:46.928Z,15.30
2023-09-05T03:56:28.912Z,15.40
2023-09-05T03:58:57.798Z,15.50
2023-09-05T04:01:27.076Z,15.60
2023-09-05T04:03:57.907Z,15.40
2023-09-05T04:06:27.165Z,14.60
2023-09-05T04:08:58.497Z,15.50
2023-09-05T04:17:33.024Z,15.70
2023-09-05T04:20:07.766Z,15.00
2023-09-05T04:22:37.584Z,15.70
2023-09-05T04:25:07.517Z,15.70
2023-09-05T04:27:37.758Z,15.50
2023-09-05T04:30:10.987Z,15.80
2023-09-05T04:32:44.454Z,15.20
2023-09-05T04:35:17.376Z,15.60
2023-09-05T04:40:50.201Z,15.70
2023-09-05T04:43:19.236Z,15.30
2023-09-05T04:45:58.459Z,15.40
2023-09-05T04:48:34.836Z,15.60
2023-09-05T04:51:06.467Z,15.60
2023-09-05T04:53:37.684Z,15.40
2023-09-05T04:56:07.051Z,15.60
2023-09-05T04:58:41.000Z,15.40
2023-09-05T05:01:10.298Z,15.60
2023-09-05T05:03:40.562Z,14.60
2023-09-05T05:06:10.883Z,15.30
2023-09-05T05:15:02.322Z,15.30
2023-09-05T05:17:32.844Z,15.60
2023-09-05T05:20:02.199Z,15.60
2023-09-05T05:22:33.763Z,15.70
2023-09-05T05:25:02.829Z,15.70
2023-09-05T05:27:35.163Z,15.90
2023-09-05T05:33:09.882Z,15.40
2023-09-05T05:35:39.194Z,15.90
2023-09-05T05:38:09.854Z,15.80
2023-09-05T05:40:43.168Z,16.00
2023-09-05T05:43:22.354Z,15.80
2023-09-05T05:45:53.332Z,16.20
2023-09-05T05:48:25.073Z,16.30
2023-09-05T05:50:57.495Z,16.40
2023-09-05T05:53:28.674Z,16.40
2023-09-05T05:55:58.287Z,16.60
2023-09-05T05:58:28.169Z,17.00
2023-09-05T06:00:57.405Z,17.20
2023-09-05T06:03:31.393Z,17.30
2023-09-05T06:06:06.360Z,17.40
2023-09-05T06:08:36.834Z,17.60
2023-09-05T06:11:07.234Z,17.00
2023-09-05T06:13:38.883Z,17.50
2023-09-05T06:16:10.266Z,17.60
2023-09-05T06:18:40.830Z,17.60
2023-09-05T06:21:09.629Z,17.80
2023-09-05T06:23:42.707Z,17.80
2023-09-05T06:26:12.248Z,18.00
2023-09-05T06:28:41.162Z,18.30
2023-09-05T06:31:10.170Z,18.10
2023-09-05T06:33:40.832Z,18.30
2023-09-05T06:36:13.760Z,18.00
2023-09-05T06:38:45.180Z,18.40
2023-09-05T06:41:15.704Z,18.70
2023-09-05T06:43:46.207Z,18.80
2023-09-05T06:46:15.529Z,19.00
2023-09-05T06:48:45.125Z,19.20
2023-09-05T06:51:16.004Z,19.30
2023-09-05T06:53:53.324Z,19.30
2023-09-05T06:56:24.792Z,19.80
2023-09-05T06:58:53.719Z,19.90
2023-09-05T07:01:23.413Z,20.00
2023-09-05T07:03:52.405Z,20.20
2023-09-05T07:06:23.101Z,20.50
2023-09-05T07:08:53.808Z,20.60
2023-09-05T07:11:25.755Z,20.80
2023-09-05T07:13:59.918Z,20.70
2023-09-05T07:16:33.082Z,21.10
2023-09-05T07:19:04.828Z,21.30
2023-09-05T07:21:35.488Z,21.30
2023-09-05T07:24:08.892Z,21.40
2023-09-05T07:26:40.691Z,21.40
2023-09-05T07:29:13.498Z,21.40
2023-09-05T07:31:46.236Z,21.50
2023-09-05T07:34:16.018Z,21.20
2023-09-05T07:36:44.871Z,21.50
2023-09-05T07:39:17.154Z,21.30
2023-09-05T07:41:46.286Z,21.40
2023-09-05T07:44:15.561Z,21.20
2023-09-05T07:46:45.506Z,21.50
2023-09-05T07:49:21.082Z,21.70
2023-09-05T07:51:52.737Z,21.80
2023-09-05T07:54:27.561Z,22.30
2023-09-05T07:56:57.743Z,22.30
2023-09-05T07:59:26.864Z,22.70
2023-09-05T08:01:57.268Z,22.10
2023-09-05T08:04:29.945Z,23.00
2023-09-05T08:07:02.654Z,22.30
2023-09-05T08:09:34.316Z,22.50
2023-09-05T08:12:04.870Z,22.60
2023-09-05T08:14:37.281Z,22.80
2023-09-05T08:17:07.025Z,23.30
2023-09-05T08:19:37.966Z,23.10
2023-09-05T08:22:09.566Z,23.50
2023-09-05T08:24:40.237Z,23.30
2023-09-05T08:27:15.007Z,23.70
2023-09-05T08:29:45.909Z,23.90
2023-09-05T08:32:14.900Z,24.20
2023-09-05T08:34:44.446Z,24.40
2023-09-05T08:37:14.881Z,24.70
2023-09-05T08:39:48.191Z,24.10
2023-09-05T08:42:17.937Z,24.30
2023-09-05T08:44:50.653Z,24.20
2023-09-05T08:47:20.013Z,24.50
2023-09-05T08:49:52.106Z,24.60
2023-09-05T08:52:23.571Z,24.10
2023-09-05T08:54:56.776Z,25.10
2023-09-05T08:57:28.259Z,24.90
2023-09-05T08:59:57.257Z,25.60
2023-09-05T09:02:27.396Z,25.70
2023-09-05T09:04:58.456Z,24.90
2023-09-05T09:07:28.966Z,25.60
2023-09-05T09:10:02.587Z,25.70
2023-09-05T09:12:32.818Z,25.20
2023-09-05T09:15:11.943Z,25.70
2023-09-05T09:17:44.011Z,25.50
2023-09-05T09:20:14.599Z,25.50
2023-09-05T09:22:47.193Z,25.40
2023-09-05T09:25:21.862Z,25.70
2023-09-05T09:27:54.817Z,25.60
2023-09-05T09:30:27.981Z,25.40
2023-09-05T09:32:58.166Z,26.10
2023-09-05T09:35:34.059Z,25.90
2023-09-05T09:38:04.825Z,25.70
2023-09-05T09:40:43.391Z,26.10
2023-09-05T09:43:13.517Z,26.70
2023-09-05T09:45:43.917Z,26.30
2023-09-05T09:48:22.209Z,26.70
2023-09-05T09:50:53.230Z,26.90
2023-09-05T09:53:31.898Z,27.10
2023-09-05T09:56:07.116Z,27.40
2023-09-05T09:58:42.291Z,27.50
2023-09-05T10:01:14.746Z,27.70
2023-09-05T10:03:46.855Z,28.00
2023-09-05T10:06:19.120Z,28.20
2023-09-05T10:08:58.955Z,28.30
2023-09-05T10:11:34.762Z,28.80
2023-09-05T10:14:04.844Z,28.40
2023-09-05T10:16:35.048Z,28.30
2023-09-05T10:19:08.284Z,28.50
2023-09-05T10:21:40.284Z,28.70
2023-09-05T10:24:10.214Z,28.90
2023-09-05T10:26:40.753Z,29.10
2023-09-05T10:29:33.756Z,29.50
2023-09-05T10:32:07.258Z,29.90
2023-09-05T10:34:59.870Z,29.90
2023-09-05T10:37:52.957Z,29.80
2023-09-05T10:40:36.929Z,30.30
2023-09-05T10:43:09.535Z,30.60
2023-09-05T10:45:40.915Z,30.40
2023-09-05T10:48:14.465Z,30.20
2023-09-05T10:51:10.318Z,29.80
2023-09-05T10:53:42.492Z,30.00
2023-09-05T10:56:40.724Z,30.30
2023-09-05T10:59:14.973Z,30.10
2023-09-05T11:01:58.804Z,29.10
2023-09-05T11:04:36.359Z,30.20
2023-09-05T11:07:15.661Z,30.30
2023-09-05T11:09:53.117Z,30.50
2023-09-05T11:12:22.391Z,30.60
2023-09-05T11:14:57.157Z,31.00
2023-09-05T11:17:28.567Z,30.90
2023-09-05T11:19:58.989Z,30.80
2023-09-05T11:22:28.094Z,30.70
2023-09-05T11:25:00.546Z,30.90
2023-09-05T11:27:30.975Z,31.10
2023-09-05T11:30:08.127Z,31.30
2023-09-05T11:32:41.199Z,31.40
2023-09-05T11:35:12.745Z,31.70
2023-09-05T11:37:42.709Z,32.30
2023-09-05T11:40:16.412Z,32.70
2023-09-05T11:42:47.402Z,32.70
2023-09-05T11:45:28.195Z,32.30
2023-09-05T11:48:02.729Z,32.90
2023-09-05T11:50:33.476Z,33.10
2023-09-05T11:53:15.645Z,33.60
2023-09-05T11:55:45.943Z,33.60
2023-09-05T11:58:18.041Z,33.80
2023-09-05T12:00:52.429Z,34.10
2023-09-05T12:03:21.870Z,34.60
2023-09-05T12:05:53.527Z,34.20
2023-09-05T12:08:36.433Z,34.70
2023-09-05T12:11:07.767Z,34.90
2023-09-05T12:13:42.065Z,34.50
2023-09-05T12:16:18.984Z,35.20
2023-09-05T12:18:48.931Z,35.60
2023-09-05T12:21:25.045Z,35.40
2023-09-05T12:23:55.805Z,34.90
2023-09-05T12:26:43.707Z,35.40
2023-09-05T12:29:18.074Z,35.30
2023-09-05T12:31:49.965Z,35.70
2023-09-05T12:34:20.220Z,35.70
2023-09-05T12:36:55.648Z,35.70
2023-09-05T12:39:25.452Z,35.70
2023-09-05T12:41:54.343Z,35.90
2023-09-05T12:44:31.618Z,35.80
2023-09-05T12:47:18.216Z,35.80
2023-09-05T12:50:08.343Z,36.00
2023-09-05T12:52:45.736Z,35.60
2023-09-05T12:55:34.573Z,35.50
2023-09-05T12:58:11.122Z,36.10
2023-09-05T13:00:41.792Z,36.20
2023-09-05T13:03:17.384Z,36.00
2023-09-05T13:08:31.533Z,36.30
2023-09-05T13:11:10.686Z,36.10
2023-09-05T13:13:44.077Z,36.00
2023-09-05T13:16:15.370Z,35.90
2023-09-05T13:18:46.976Z,36.30
2023-09-05T13:21:16.760Z,36.40
2023-09-05T13:23:48.925Z,36.00
2023-09-05T13:26:19.150Z,36.70
2023-09-05T13:28:48.423Z,36.40
2023-09-05T13:31:18.370Z,36.30
2023-09-05T13:33:51.249Z,36.30
2023-09-05T13:36:20.213Z,35.70
2023-09-05T13:38:49.439Z,35.80
2023-09-05T13:41:18.534Z,36.60
2023-09-05T13:43:48.095Z,36.40
2023-09-05T13:46:20.147Z,36.70
2023-09-05T13:48:54.705Z,36.60
2023-09-05T13:51:24.133Z,37.10
2023-09-05T13:53:54.911Z,37.10
2023-09-05T13:56:25.048Z,36.20
2023-09-05T13:58:54.558Z,36.10
2023-09-05T14:01:23.960Z,36.60
2023-09-05T14:03:56.041Z,36.90
2023-09-05T14:06:25.218Z,37.30
2023-09-05T14:08:54.600Z,36.90
2023-09-05T14:11:23.879Z,37.50
2023-09-05T14:13:52.761Z,38.00
2023-09-05T14:16:23.040Z,38.40
2023-09-05T14:18:56.710Z,38.60
2023-09-05T14:21:26.046Z,38.50
2023-09-05T14:23:54.961Z,38.50
2023-09-05T14:26:25.845Z,39.00
2023-09-05T14:28:54.468Z,39.30
2023-09-05T14:31:24.078Z,38.90
2023-09-05T14:33:54.738Z,38.30
2023-09-05T14:36:23.718Z,38.40
2023-09-05T14:38:53.433Z,38.00
2023-09-05T14:41:32.530Z,38.30
2023-09-05T14:44:05.081Z,37.70
2023-09-05T14:46:35.923Z,37.70
2023-09-05T14:49:11.710Z,37.90
2023-09-05T14:51:42.899Z,38.00
2023-09-05T14:54:12.501Z,37.90
2023-09-05T14:56:45.469Z,36.50
2023-09-05T14:59:18.975Z,36.30
2023-09-05T15:01:51.422Z,36.90
2023-09-05T15:04:21.667Z,36.40
2023-09-05T15:06:50.609Z,36.00
2023-09-05T15:09:22.339Z,36.30
2023-09-05T15:11:51.114Z,37.10
2023-09-05T15:14:20.660Z,37.30
2023-09-05T15:16:49.946Z,36.80
2023-09-05T15:19:22.422Z,36.10
2023-09-05T15:21:51.476Z,36.00
2023-09-05T15:24:21.313Z,36.60
2023-09-05T15:26:50.482Z,36.40
2023-09-05T15:29:21.394Z,36.40
2023-09-05T15:31:50.384Z,36.30
2023-09-05T15:34:22.130Z,36.20
2023-09-05T15:36:51.988Z,35.30
2023-09-05T15:39:21.584Z,34.70
2023-09-05T15:41:53.043Z,34.30
2023-09-05T15:44:22.488Z,33.50
2023-09-05T15:46:51.329Z,33.40
2023-09-05T15:49:23.788Z,33.70
2023-09-05T15:51:53.057Z,33.70
2023-09-05T15:54:24.512Z,33.80
2023-09-05T15:56:54.979Z,34.10
2023-09-05T15:59:23.679Z,33.90
2023-09-05T16:01:54.748Z,34.60
2023-09-05T16:04:27.416Z,34.70
2023-09-05T16:06:58.846Z,34.90
2023-09-05T16:09:28.477Z,34.60
2023-09-05T16:11:57.936Z,33.90
2023-09-05T16:14:27.351Z,33.40
2023-09-05T16:19:59.508Z,31.30
2023-09-05T16:22:30.994Z,32.20
2023-09-05T16:25:01.155Z,32.00
2023-09-05T16:27:31.692Z,32.90
2023-09-05T16:30:01.020Z,33.10
2023-09-05T16:32:30.800Z,33.20
2023-09-05T16:35:01.980Z,33.30
2023-09-05T16:37:32.278Z,32.90
2023-09-05T16:40:01.430Z,33.00
2023-09-05T16:42:30.614Z,32.90
2023-09-05T16:44:59.518Z,32.80
2023-09-05T16:47:30.787Z,32.50
2023-09-05T16:50:02.364Z,32.80
2023-09-05T16:52:32.216Z,32.90
2023-09-05T16:55:01.032Z,32.90
2023-09-05T16:57:35.960Z,32.30
2023-09-05T17:00:08.805Z,32.70
2023-09-05T17:02:40.247Z,32.80
2023-09-05T17:05:13.464Z,32.60
2023-09-05T17:07:42.962Z,32.40
2023-09-05T17:24:25.186Z,29.00
2023-09-05T17:32:54.446Z,26.60
2023-09-05T17:35:25.587Z,26.50
2023-09-05T17:37:56.055Z,26.00
2023-09-05T17:40:30.575Z,25.30
2023-09-05T17:43:27.728Z,25.10
2023-09-05T17:45:57.291Z,24.50
2023-09-05T17:53:58.984Z,23.70
2023-09-05T17:56:33.192Z,23.40
2023-09-05T18:01:47.405Z,22.80
2023-09-05T18:04:16.597Z,22.70
2023-09-05T18:06:52.832Z,22.30
2023-09-05T18:15:18.404Z,22.40
2023-09-05T18:21:18.606Z,22.00
2023-09-05T18:23:56.549Z,22.00
2023-09-05T18:26:48.768Z,21.70
2023-09-05T18:32:09.916Z,21.70
2023-09-05T18:46:40.399Z,21.00
2023-09-05T18:49:15.600Z,20.50
2023-09-05T19:00:57.578Z,20.20
2023-09-05T19:03:34.521Z,20.10
2023-09-05T19:06:15.009Z,20.10
2023-09-05T19:09:01.403Z,20.00
2023-09-05T19:11:58.380Z,19.80
2023-09-05T19:14:27.607Z,19.60
2023-09-05T19:45:18.370Z,19.10
2023-09-05T20:16:08.634Z,18.40
2023-09-05T20:34:45.462Z,18.20
2023-09-05T21:48:05.257Z,16.80
